Time;durP1;ratioP1;P1;durP2;ratioP2;P2;SDS_P1;SDS_P2;PMS_P1;PMS_P2;Temp;Humidity;BMP_temperature;BMP_pressure;BME280_temperature;BME280_humidity;BME280_pressure;Samples;Min_cycle;Max_cycle;Signal;HPM_P1;HPM_P2
2023/10/14 00:01:34;;;;;;;10.55;7.63;;;17.20;99.90;;;;;;5074017;28;20187;-81
2023/10/14 00:04:04;;;;;;;11.80;7.07;;;17.20;99.90;;;;;;5056130;28;20608;-81
2023/10/14 00:06:34;;;;;;;13.85;7.60;;;17.20;99.90;;;;;;5056186;28;20201;-79
2023/10/14 00:09:01;;;;;;;13.25;6.70;;;17.20;99.90;;;;;;5056331;28;20169;-80
2023/10/14 00:11:42;;;;;;;16.13;7.45;;;17.30;99.90;;;;;;5074127;28;20173;-82
2023/10/14 00:14:11;;;;;;;12.55;6.97;;;17.20;99.90;;;;;;5074158;28;20253;-81
2023/10/14 00:16:41;;;;;;;14.00;6.85;;;17.20;99.90;;;;;;5056070;28;20219;-82
2023/10/14 00:19:09;;;;;;;11.93;6.82;;;17.20;99.90;;;;;;5074101;28;20690;-82
2023/10/14 00:21:36;;;;;;;18.38;6.50;;;17.20;99.90;;;;;;5056000;28;20201;-84
2023/10/14 00:24:06;;;;;;;14.80;7.00;;;17.20;99.90;;;;;;5073971;28;20248;-85
2023/10/14 00:26:35;;;;;;;13.32;6.22;;;17.30;99.90;;;;;;5073761;28;20220;-83
2023/10/14 00:29:35;;;;;;;10.18;6.13;;;17.30;99.90;;;;;;5056077;28;20288;-81
2023/10/14 00:31:53;;;;;;;15.98;6.38;;;17.30;99.90;;;;;;5069862;28;20189;-83
2023/10/14 00:36:57;;;;;;;14.15;6.47;;;17.30;99.90;;;;;;5030854;22;20687;-85
2023/10/14 00:39:31;;;;;;;11.27;6.20;;;17.40;99.90;;;;;;5034526;28;20194;-86
2023/10/14 00:41:58;;;;;;;10.95;5.68;;;17.40;99.90;;;;;;5032806;28;20201;-87
2023/10/14 00:44:25;;;;;;;10.18;5.18;;;17.60;99.90;;;;;;5032479;28;20186;-87
2023/10/14 00:46:53;;;;;;;10.48;5.68;;;17.60;99.90;;;;;;5032322;28;20763;-86
2023/10/14 00:49:22;;;;;;;12.73;5.28;;;17.60;99.90;;;;;;5032341;28;20605;-86
2023/10/14 00:51:51;;;;;;;11.43;5.90;;;17.70;99.90;;;;;;5031268;28;20178;-86
2023/10/14 00:54:27;;;;;;;11.82;5.05;;;17.70;99.90;;;;;;5020371;28;20210;-85
2023/10/14 00:56:53;;;;;;;12.23;5.50;;;17.80;99.90;;;;;;5032080;28;20217;-86
2023/10/14 00:59:19;;;;;;;14.02;5.45;;;17.70;99.90;;;;;;5033190;28;20177;-86
2023/10/14 01:01:58;;;;;;;9.93;5.30;;;17.70;99.90;;;;;;5033871;28;20174;-86
2023/10/14 01:04:32;;;;;;;11.05;4.90;;;17.70;99.90;;;;;;5034152;28;20166;-88
2023/10/14 01:09:55;;;;;;;9.98;5.07;;;17.60;99.90;;;;;;5033999;28;20159;-86
2023/10/14 01:12:26;;;;;;;9.90;5.20;;;17.60;99.90;;;;;;5034939;28;20629;-85
2023/10/14 01:14:53;;;;;;;11.15;5.50;;;17.60;99.90;;;;;;5035835;28;20178;-86
2023/10/14 01:17:30;;;;;;;11.02;5.20;;;17.60;99.90;;;;;;5035585;28;20206;-86
2023/10/14 01:23:07;;;;;;;12.90;5.07;;;17.70;99.90;;;;;;5023679;28;20681;-86
2023/10/14 01:25:41;;;;;;;12.90;4.88;;;17.60;99.90;;;;;;5037018;28;20671;-86
2023/10/14 01:28:15;;;;;;;7.57;4.55;;;17.60;99.90;;;;;;5035650;28;20177;-85
2023/10/14 01:33:50;;;;;;;13.23;4.50;;;17.60;99.90;;;;;;5036424;28;20486;-86
2023/10/14 01:36:16;;;;;;;10.32;4.40;;;17.50;99.90;;;;;;5034864;28;20320;-84
2023/10/14 01:38:49;;;;;;;14.93;4.80;;;17.50;99.90;;;;;;5036792;28;20163;-86
2023/10/14 01:41:15;;;;;;;7.47;4.70;;;17.50;99.90;;;;;;5036698;28;20169;-85
2023/10/14 01:43:40;;;;;;;12.13;4.88;;;17.50;99.90;;;;;;5035296;28;20265;-87
2023/10/14 01:46:09;;;;;;;9.50;4.60;;;17.50;99.90;;;;;;5035430;28;20217;-87
2023/10/14 01:48:38;;;;;;;7.45;4.20;;;17.50;99.90;;;;;;5035408;28;20194;-86
2023/10/14 01:51:04;;;;;;;10.30;4.47;;;17.50;99.90;;;;;;5034994;28;20262;-87
2023/10/14 01:53:35;;;;;;;9.88;4.35;;;17.60;99.90;;;;;;5035032;28;20228;-85
2023/10/14 01:56:02;;;;;;;9.13;4.70;;;17.60;99.90;;;;;;5034979;28;20183;-86
2023/10/14 01:58:30;;;;;;;11.30;4.07;;;17.60;99.90;;;;;;5035776;28;20225;-86
2023/10/14 02:03:52;;;;;;;6.43;4.10;;;17.60;99.90;;;;;;5036488;28;20221;-85
2023/10/14 02:06:27;;;;;;;7.28;4.13;;;17.60;99.90;;;;;;5033634;28;20186;-84
2023/10/14 02:08:55;;;;;;;9.50;4.10;;;17.70;99.90;;;;;;5035106;28;20177;-84
2023/10/14 02:11:25;;;;;;;12.48;4.82;;;17.60;99.90;;;;;;5019785;28;20179;-86
2023/10/14 02:13:54;;;;;;;10.77;4.50;;;17.60;99.90;;;;;;5013956;28;20688;-86
2023/10/14 02:17:04;;;;;;;10.90;4.35;;;17.70;99.90;;;;;;5021201;28;20253;-86
2023/10/14 02:19:21;;;;;;;12.07;4.40;;;17.70;99.90;;;;;;5008730;28;20868;-86
2023/10/14 02:22:03;;;;;;;12.68;4.80;;;17.70;99.90;;;;;;5017653;28;20249;-84
2023/10/14 02:24:29;;;;;;;11.35;4.60;;;17.70;99.90;;;;;;5022265;28;20245;-85
2023/10/14 02:27:10;;;;;;;18.17;5.28;;;17.70;99.90;;;;;;5014964;28;20183;-84
2023/10/14 02:29:35;;;;;;;13.13;4.47;;;17.70;99.90;;;;;;5014965;28;20183;-85
2023/10/14 02:32:01;;;;;;;8.38;4.38;;;17.70;99.90;;;;;;5022799;28;20174;-85
2023/10/14 02:34:27;;;;;;;15.98;5.10;;;17.70;99.90;;;;;;5013802;28;20179;-87
2023/10/14 02:36:54;;;;;;;7.25;4.28;;;17.60;99.90;;;;;;5027277;28;20230;-87
2023/10/14 02:39:27;;;;;;;10.90;4.30;;;17.70;99.90;;;;;;5033990;28;20530;-86
2023/10/14 02:42:27;;;;;;;5.70;3.22;;;17.70;99.90;;;;;;5034564;28;20186;-87
2023/10/14 02:44:48;;;;;;;4.43;2.05;;;17.90;99.90;;;;;;5033369;28;20189;-86
2023/10/14 02:47:14;;;;;;;5.47;1.70;;;17.80;99.90;;;;;;5034204;28;20241;-86
2023/10/14 02:49:40;;;;;;;5.60;1.73;;;17.80;99.90;;;;;;5034155;28;20181;-84
2023/10/14 02:52:09;;;;;;;3.58;1.13;;;17.60;99.90;;;;;;5033726;28;20182;-89
2023/10/14 02:54:36;;;;;;;5.70;1.40;;;17.40;99.90;;;;;;5035460;28;20184;-86
2023/10/14 02:57:23;;;;;;;2.35;0.82;;;17.00;99.90;;;;;;5033758;28;20260;-86
2023/10/14 02:59:51;;;;;;;2.58;0.80;;;16.30;99.90;;;;;;5034627;28;20178;-88
2023/10/14 03:07:30;;;;;;;2.22;0.70;;;14.50;99.90;;;;;;5035573;28;20175;-88
2023/10/14 03:12:42;;;;;;;2.00;0.73;;;13.90;99.90;;;;;;5035719;28;20167;-88
2023/10/14 03:15:38;;;;;;;2.22;0.80;;;13.80;99.90;;;;;;5034151;28;20186;-88
2023/10/14 03:18:01;;;;;;;5.25;0.80;;;13.90;99.90;;;;;;5034758;28;20214;-88
2023/10/14 03:23:10;;;;;;;3.63;0.77;;;13.80;99.90;;;;;;5035523;28;20214;-88
2023/10/14 03:25:39;;;;;;;2.75;0.82;;;13.70;99.90;;;;;;5035640;28;20595;-87
2023/10/14 03:28:12;;;;;;;3.53;1.00;;;13.70;99.90;;;;;;5034124;28;20171;-87
2023/10/14 03:30:44;;;;;;;6.25;1.17;;;13.70;99.90;;;;;;5034226;28;20194;-86
2023/10/14 03:33:10;;;;;;;3.45;0.88;;;13.70;99.90;;;;;;5033835;28;20178;-85
2023/10/14 03:35:48;;;;;;;3.60;1.15;;;13.70;99.90;;;;;;5033990;28;20225;-87
2023/10/14 03:38:15;;;;;;;4.25;1.10;;;13.70;99.90;;;;;;5033639;28;20186;-86
2023/10/14 03:43:18;;;;;;;7.30;0.90;;;13.70;99.90;;;;;;5035396;28;20249;-87
2023/10/14 03:45:56;;;;;;;5.07;1.00;;;13.70;99.90;;;;;;5033759;28;20918;-87
2023/10/14 03:48:29;;;;;;;6.10;1.13;;;13.70;99.90;;;;;;5033661;28;20605;-87
2023/10/14 03:51:02;;;;;;;2.55;1.20;;;13.70;99.90;;;;;;5033425;28;20170;-86
2023/10/14 03:53:34;;;;;;;2.60;0.90;;;13.80;99.90;;;;;;5034326;28;20171;-86
2023/10/14 03:56:01;;;;;;;2.83;1.13;;;13.70;99.90;;;;;;5033051;28;20182;-86
2023/10/14 03:58:30;;;;;;;5.25;1.02;;;13.70;99.90;;;;;;5033117;28;20174;-86
2023/10/14 04:00:57;;;;;;;4.82;0.82;;;13.70;99.90;;;;;;5034324;28;20163;-86
2023/10/14 04:03:41;;;;;;;2.42;1.10;;;13.70;99.90;;;;;;5033212;28;20521;-86
2023/10/14 04:06:08;;;;;;;2.45;0.90;;;13.70;99.90;;;;;;5034000;28;20236;-85
2023/10/14 04:08:40;;;;;;;2.22;0.77;;;13.70;99.90;;;;;;5033131;28;20513;-85
2023/10/14 04:11:15;;;;;;;4.32;0.85;;;13.70;99.90;;;;;;5034313;28;20538;-86
2023/10/14 04:13:58;;;;;;;1.70;0.75;;;13.70;99.90;;;;;;5033438;28;20224;-88
2023/10/14 04:16:37;;;;;;;4.93;1.10;;;13.70;99.90;;;;;;5032836;28;20213;-86
2023/10/14 04:19:17;;;;;;;1.05;0.60;;;13.60;99.90;;;;;;5033071;28;20175;-85
2023/10/14 04:21:52;;;;;;;2.72;0.88;;;13.60;99.90;;;;;;5033920;28;20163;-86
2023/10/14 04:25:07;;;;;;;3.63;0.60;;;13.60;99.90;;;;;;5032923;28;20288;-86
2023/10/14 04:27:22;;;;;;;1.10;0.57;;;13.50;99.90;;;;;;5028642;28;20244;-85
2023/10/14 04:29:52;;;;;;;3.40;0.70;;;13.60;99.90;;;;;;5032900;28;20174;-85
2023/10/14 04:32:25;;;;;;;3.08;0.93;;;13.50;99.90;;;;;;5032647;28;20580;-85
2023/10/14 04:34:54;;;;;;;1.75;0.70;;;13.50;99.90;;;;;;5032353;28;20176;-85
2023/10/14 04:37:21;;;;;;;5.53;0.90;;;13.40;99.90;;;;;;5032202;28;20268;-85
2023/10/14 04:39:47;;;;;;;3.35;0.60;;;13.40;99.90;;;;;;5032833;28;20171;-85
2023/10/14 04:44:54;;;;;;;1.20;0.57;;;13.40;99.90;;;;;;5034096;28;20178;-84
2023/10/14 04:47:35;;;;;;;3.70;0.90;;;13.40;99.90;;;;;;5036085;28;20182;-83
2023/10/14 04:50:21;;;;;;;2.20;0.82;;;13.40;99.90;;;;;;5036531;28;20221;-86
2023/10/14 04:52:50;;;;;;;2.17;0.65;;;13.30;99.90;;;;;;5035745;28;20217;-85
2023/10/14 05:00:41;;;;;;;3.50;0.80;;;13.30;99.90;;;;;;5038071;28;20169;-84
2023/10/14 05:03:14;;;;;;;3.45;0.90;;;13.30;99.90;;;;;;5036447;28;20175;-85
2023/10/14 05:05:49;;;;;;;5.15;0.90;;;13.30;99.90;;;;;;5036385;28;20273;-84
2023/10/14 05:08:17;;;;;;;3.47;0.82;;;13.30;99.90;;;;;;5037191;28;20224;-85
2023/10/14 05:10:50;;;;;;;5.72;1.75;;;13.20;99.90;;;;;;5036287;28;20170;-86
2023/10/14 05:13:16;;;;;;;1.50;0.65;;;13.30;99.90;;;;;;5037550;28;20171;-85
2023/10/14 05:15:43;;;;;;;3.75;1.08;;;13.20;99.90;;;;;;5036217;28;20262;-85
2023/10/14 05:18:16;;;;;;;4.97;1.20;;;13.20;99.90;;;;;;5037540;28;20601;-86
2023/10/14 05:20:56;;;;;;;5.05;0.95;;;13.20;99.90;;;;;;5036264;28;20178;-86
2023/10/14 05:23:30;;;;;;;7.90;1.40;;;13.20;99.90;;;;;;5037211;28;20169;-86
2023/10/14 05:25:57;;;;;;;4.13;1.05;;;13.20;99.90;;;;;;5037335;28;20246;-85
2023/10/14 05:28:29;;;;;;;5.68;1.15;;;13.20;99.90;;;;;;5035995;28;20190;-85
2023/10/14 05:31:00;;;;;;;4.47;1.10;;;13.10;99.90;;;;;;5037206;28;20182;-85
2023/10/14 05:33:31;;;;;;;3.55;1.13;;;13.10;99.90;;;;;;5035804;28;20692;-87
2023/10/14 05:36:01;;;;;;;7.43;2.00;;;13.10;99.90;;;;;;5036377;28;20673;-85
2023/10/14 05:38:27;;;;;;;5.10;1.00;;;13.10;99.90;;;;;;5035416;28;20621;-86
2023/10/14 05:40:56;;;;;;;6.00;1.10;;;13.00;99.90;;;;;;5035609;28;20501;-86
2023/10/14 05:43:23;;;;;;;10.85;1.52;;;13.00;99.90;;;;;;5035790;28;20217;-85
2023/10/14 05:45:51;;;;;;;7.00;1.60;;;12.90;99.90;;;;;;5035970;28;20572;-86
2023/10/14 05:48:17;;;;;;;7.50;1.17;;;12.90;99.90;;;;;;5035594;28;20518;-86
2023/10/14 05:50:43;;;;;;;5.85;1.20;;;12.80;99.90;;;;;;5036974;28;20255;-86
2023/10/14 05:53:09;;;;;;;6.88;1.40;;;12.70;99.90;;;;;;5035250;28;20179;-85
2023/10/14 05:55:35;;;;;;;6.70;1.52;;;12.70;99.90;;;;;;5035500;28;20182;-85
2023/10/14 05:58:02;;;;;;;8.82;1.60;;;12.60;99.90;;;;;;5034454;28;20218;-86
2023/10/14 06:00:28;;;;;;;8.45;1.42;;;12.50;99.90;;;;;;5035369;28;20178;-85
2023/10/14 06:02:56;;;;;;;8.25;1.70;;;12.40;99.90;;;;;;5035313;28;20186;-86
2023/10/14 06:05:26;;;;;;;13.95;2.25;;;12.40;99.90;;;;;;5036221;28;20366;-85
2023/10/14 06:08:16;;;;;;;8.10;1.67;;;12.30;99.90;;;;;;5035105;28;20171;-85
2023/10/14 06:10:42;;;;;;;7.35;1.40;;;12.30;99.90;;;;;;5035314;28;20616;-85
2023/10/14 06:13:09;;;;;;;6.28;1.58;;;12.30;99.90;;;;;;5036140;28;20202;-85
2023/10/14 06:15:44;;;;;;;10.32;1.67;;;12.20;99.90;;;;;;5036292;28;20175;-85
2023/10/14 06:18:13;;;;;;;8.45;1.75;;;12.20;99.90;;;;;;5036146;28;20226;-85
2023/10/14 06:20:41;;;;;;;10.73;2.35;;;12.20;99.90;;;;;;5034504;28;20232;-84
2023/10/14 06:23:08;;;;;;;7.00;1.50;;;12.10;99.90;;;;;;5024217;28;20180;-85
2023/10/14 06:25:36;;;;;;;8.10;2.20;;;12.10;99.90;;;;;;5014896;28;20262;-85
2023/10/14 06:28:05;;;;;;;8.52;1.65;;;12.10;99.90;;;;;;5016013;28;20290;-85
2023/10/14 06:30:30;;;;;;;6.90;1.30;;;12.10;99.90;;;;;;5014808;28;20179;-84
2023/10/14 06:33:06;;;;;;;15.23;1.70;;;12.10;99.90;;;;;;5014298;28;20183;-85
2023/10/14 06:35:37;;;;;;;9.85;2.03;;;12.10;99.90;;;;;;5017786;28;20226;-85
2023/10/14 06:38:04;;;;;;;11.90;2.30;;;12.10;99.90;;;;;;5028426;28;20301;-85
2023/10/14 06:40:36;;;;;;;9.23;1.60;;;12.10;99.90;;;;;;5014767;28;20262;-85
2023/10/14 06:43:13;;;;;;;11.57;1.80;;;12.00;99.90;;;;;;5014377;28;20270;-85
2023/10/14 06:45:39;;;;;;;9.57;1.73;;;12.10;99.90;;;;;;5014576;28;20187;-85
2023/10/14 06:48:12;;;;;;;8.43;1.60;;;12.10;99.90;;;;;;5014447;28;20187;-85
2023/10/14 06:50:41;;;;;;;10.60;1.73;;;12.10;99.90;;;;;;5014460;28;20179;-85
2023/10/14 06:53:10;;;;;;;14.13;2.53;;;12.00;99.90;;;;;;5014008;28;20179;-85
2023/10/14 06:55:37;;;;;;;11.52;1.77;;;12.10;99.90;;;;;;5014155;28;20190;-84
2023/10/14 06:58:08;;;;;;;8.07;1.75;;;12.10;99.90;;;;;;5014056;28;20226;-84
2023/10/14 07:00:37;;;;;;;9.05;1.38;;;12.10;99.90;;;;;;5014186;28;20171;-85
2023/10/14 07:03:12;;;;;;;8.05;1.83;;;12.20;99.90;;;;;;5013907;28;20522;-85
2023/10/14 07:05:56;;;;;;;10.40;1.73;;;12.20;99.90;;;;;;5018251;28;20190;-85
2023/10/14 07:08:25;;;;;;;9.20;1.58;;;12.20;99.90;;;;;;5033493;28;20178;-83
2023/10/14 07:10:51;;;;;;;11.38;1.83;;;12.20;99.90;;;;;;5034491;28;20166;-85
2023/10/14 07:13:20;;;;;;;13.15;2.05;;;12.30;99.90;;;;;;5033537;28;20174;-85
2023/10/14 07:15:47;;;;;;;11.13;1.80;;;12.40;99.90;;;;;;5031519;28;20178;-84
2023/10/14 07:18:22;;;;;;;12.13;1.83;;;12.40;99.90;;;;;;5023759;28;20269;-85
2023/10/14 07:21:00;;;;;;;12.30;1.90;;;12.50;99.90;;;;;;5026781;28;20209;-84
2023/10/14 07:23:27;;;;;;;9.00;1.75;;;12.50;99.90;;;;;;5024976;28;20164;-84
2023/10/14 07:25:53;;;;;;;10.95;1.95;;;12.60;99.90;;;;;;5026131;28;20182;-85
2023/10/14 07:28:18;;;;;;;11.35;1.63;;;12.50;99.90;;;;;;5034371;28;20189;-85
2023/10/14 07:30:48;;;;;;;11.73;1.70;;;12.60;99.90;;;;;;5020425;28;20252;-84
2023/10/14 07:33:15;;;;;;;12.27;1.83;;;12.70;99.90;;;;;;5032169;28;20198;-84
2023/10/14 07:35:41;;;;;;;11.48;2.25;;;12.70;99.90;;;;;;5027372;28;20226;-85
2023/10/14 07:38:08;;;;;;;10.90;1.60;;;12.70;99.90;;;;;;5017930;28;20206;-84
2023/10/14 07:40:36;;;;;;;11.77;1.98;;;12.70;99.90;;;;;;5032098;28;20202;-84
2023/10/14 07:43:13;;;;;;;13.48;2.00;;;12.80;99.90;;;;;;5019142;28;20567;-84
2023/10/14 07:45:48;;;;;;;6.75;1.90;;;12.80;99.90;;;;;;5032026;28;20170;-85
2023/10/14 07:48:17;;;;;;;12.57;2.05;;;12.80;99.90;;;;;;5034356;28;20205;-85
2023/10/14 07:50:48;;;;;;;11.05;2.20;;;12.80;99.90;;;;;;5032777;28;20187;-84
2023/10/14 07:53:22;;;;;;;10.85;2.17;;;12.80;99.90;;;;;;5033707;28;20903;-84
2023/10/14 07:55:49;;;;;;;12.05;2.40;;;12.80;99.90;;;;;;5034030;28;20173;-84
2023/10/14 07:58:16;;;;;;;12.20;2.38;;;12.90;99.90;;;;;;5026533;28;20214;-84
2023/10/14 08:00:51;;;;;;;8.18;1.75;;;12.90;99.90;;;;;;5022137;28;20584;-84
2023/10/14 08:03:19;;;;;;;8.73;1.60;;;12.90;99.90;;;;;;5023721;28;20182;-84
2023/10/14 08:05:51;;;;;;;6.40;1.75;;;13.00;99.90;;;;;;5027400;28;20617;-84
2023/10/14 08:08:19;;;;;;;10.77;1.65;;;13.10;99.90;;;;;;5018886;28;20227;-84
2023/10/14 08:10:48;;;;;;;20.55;2.72;;;13.10;99.90;;;;;;5012939;28;20267;-83
2023/10/14 08:13:18;;;;;;;12.32;2.50;;;13.10;99.90;;;;;;5014545;28;20187;-83
2023/10/14 08:15:43;;;;;;;13.10;2.05;;;13.20;99.90;;;;;;5032684;28;20181;-84
2023/10/14 08:18:12;;;;;;;17.17;2.53;;;13.20;99.90;;;;;;5032601;28;20313;-84
2023/10/14 08:20:42;;;;;;;10.02;1.58;;;13.20;99.90;;;;;;5033457;28;20612;-84
2023/10/14 08:23:10;;;;;;;15.77;2.05;;;13.20;99.90;;;;;;5036177;28;20182;-84
2023/10/14 08:25:38;;;;;;;13.38;2.20;;;13.30;99.90;;;;;;5034811;28;20174;-84
2023/10/14 08:28:08;;;;;;;11.18;1.92;;;13.20;99.90;;;;;;5030783;28;20566;-85
2023/10/14 08:30:45;;;;;;;14.18;2.15;;;13.20;99.90;;;;;;5028714;28;20261;-85
2023/10/14 08:33:15;;;;;;;6.30;1.77;;;13.30;99.90;;;;;;5031411;28;20166;-84
2023/10/14 08:35:42;;;;;;;8.82;1.88;;;13.30;99.90;;;;;;5035983;28;20257;-84
2023/10/14 08:38:13;;;;;;;11.23;2.00;;;13.40;99.90;;;;;;5036209;28;20244;-86
2023/10/14 08:40:40;;;;;;;8.60;1.73;;;13.30;99.90;;;;;;5036761;28;20185;-86
2023/10/14 08:43:10;;;;;;;8.50;1.90;;;13.30;99.90;;;;;;5036750;28;20178;-85
2023/10/14 08:45:39;;;;;;;10.00;2.35;;;13.30;99.90;;;;;;5036413;28;20170;-85
2023/10/14 08:48:11;;;;;;;13.60;2.20;;;13.30;99.90;;;;;;5032562;28;20187;-85
2023/10/14 08:50:39;;;;;;;13.65;2.63;;;13.30;99.90;;;;;;5016547;28;20176;-85
2023/10/14 08:53:07;;;;;;;15.18;2.20;;;13.20;99.90;;;;;;5017487;28;20506;-85
2023/10/14 08:55:37;;;;;;;9.07;1.85;;;13.10;99.90;;;;;;5018272;28;20179;-85
2023/10/14 08:58:06;;;;;;;10.07;1.92;;;13.10;99.90;;;;;;5028908;28;20737;-84
2023/10/14 09:00:36;;;;;;;8.63;1.95;;;13.10;99.90;;;;;;5028483;28;20181;-85
2023/10/14 09:03:09;;;;;;;12.68;2.05;;;13.20;99.90;;;;;;5029315;28;20517;-84
2023/10/14 09:05:44;;;;;;;14.38;2.20;;;13.20;99.90;;;;;;5036120;28;20236;-86
2023/10/14 09:08:11;;;;;;;10.40;2.53;;;13.20;99.90;;;;;;5036790;28;20163;-85
2023/10/14 09:10:37;;;;;;;15.70;2.47;;;13.20;99.90;;;;;;5037187;28;20232;-85
2023/10/14 09:13:05;;;;;;;11.43;1.77;;;13.30;99.90;;;;;;5035518;28;20187;-84
2023/10/14 09:15:51;;;;;;;13.32;2.17;;;13.40;99.90;;;;;;5035645;28;20202;-84
2023/10/14 09:18:27;;;;;;;10.32;1.80;;;13.60;99.90;;;;;;5036917;28;20252;-84
2023/10/14 09:20:56;;;;;;;14.77;2.65;;;13.60;99.90;;;;;;5037143;28;20545;-84
2023/10/14 09:23:25;;;;;;;11.68;2.20;;;13.70;99.90;;;;;;5035375;28;20181;-85
2023/10/14 09:25:56;;;;;;;11.30;2.05;;;13.80;99.90;;;;;;5029415;28;20250;-85
2023/10/14 09:28:33;;;;;;;11.48;2.15;;;13.80;99.90;;;;;;5015753;28;20175;-87
2023/10/14 09:31:02;;;;;;;8.38;2.13;;;14.00;99.90;;;;;;5015308;28;20175;-84
2023/10/14 09:33:33;;;;;;;12.07;1.58;;;14.00;99.90;;;;;;5015518;28;20167;-86
2023/10/14 09:36:05;;;;;;;11.70;2.08;;;14.00;99.90;;;;;;5022140;28;20226;-85
2023/10/14 09:38:34;;;;;;;12.20;2.03;;;13.90;99.90;;;;;;5017450;28;20179;-85
2023/10/14 09:41:05;;;;;;;9.48;2.38;;;14.00;99.90;;;;;;5015342;28;20182;-85
2023/10/14 09:43:32;;;;;;;11.20;2.33;;;14.00;99.90;;;;;;5015426;28;20179;-85
2023/10/14 09:46:03;;;;;;;7.22;1.98;;;14.10;99.90;;;;;;5017998;28;20179;-86
2023/10/14 09:48:31;;;;;;;16.67;2.58;;;14.10;99.90;;;;;;5015917;28;20191;-84
2023/10/14 09:51:02;;;;;;;7.97;1.60;;;14.00;99.90;;;;;;5017430;28;20261;-85
2023/10/14 09:53:32;;;;;;;17.77;2.25;;;14.10;99.90;;;;;;5028550;28;20217;-85
2023/10/14 09:56:10;;;;;;;9.45;2.00;;;14.10;99.90;;;;;;5023184;28;20163;-86
2023/10/14 09:58:42;;;;;;;10.05;2.30;;;14.10;99.90;;;;;;5008733;28;20191;-87
2023/10/14 10:01:16;;;;;;;12.18;2.03;;;14.10;99.90;;;;;;5021637;28;20506;-85
2023/10/14 10:04:06;;;;;;;11.27;2.00;;;14.20;99.90;;;;;;5014191;28;20287;-85
2023/10/14 10:06:54;;;;;;;9.98;1.70;;;14.20;99.90;;;;;;5023370;28;20523;-84
2023/10/14 10:09:37;;;;;;;11.05;2.20;;;14.30;99.90;;;;;;5027529;28;20207;-86
2023/10/14 10:12:08;;;;;;;8.18;1.77;;;14.30;99.90;;;;;;5027203;28;20174;-84
2023/10/14 10:14:43;;;;;;;11.07;2.85;;;14.10;99.90;;;;;;5030159;28;20206;-84
2023/10/14 10:17:11;;;;;;;14.18;2.47;;;14.10;99.90;;;;;;5034945;28;20225;-85
2023/10/14 10:20:09;;;;;;;9.07;2.25;;;14.20;99.90;;;;;;5026540;28;20198;-87
2023/10/14 10:22:53;;;;;;;7.45;1.67;;;14.40;99.90;;;;;;5017428;28;20194;-84
2023/10/14 10:25:23;;;;;;;12.05;2.42;;;14.60;99.90;;;;;;5023686;28;20776;-84
2023/10/14 10:27:50;;;;;;;9.57;1.92;;;14.70;99.90;;;;;;5023932;28;20194;-86
2023/10/14 10:30:20;;;;;;;9.43;1.83;;;14.80;99.90;;;;;;5020837;28;20191;-87
2023/10/14 10:33:10;;;;;;;9.60;2.00;;;14.90;99.90;;;;;;5023169;28;20955;-85
2023/10/14 10:35:56;;;;;;;10.80;1.92;;;15.00;99.90;;;;;;5013633;28;20242;-86
2023/10/14 10:38:23;;;;;;;16.50;2.17;;;15.10;99.90;;;;;;5021385;28;20211;-87
2023/10/14 10:41:16;;;;;;;9.95;2.15;;;15.00;99.90;;;;;;5020919;28;20229;-85
2023/10/14 10:43:46;;;;;;;11.20;1.75;;;15.10;99.90;;;;;;5016239;28;20205;-85
2023/10/14 10:46:49;;;;;;;10.32;1.65;;;15.10;99.90;;;;;;5031586;28;20232;-85
2023/10/14 10:49:37;;;;;;;12.63;2.50;;;14.90;99.90;;;;;;4994285;28;20195;-87
2023/10/14 10:52:14;;;;;;;11.05;2.25;;;14.70;99.90;;;;;;5017562;28;20191;-87
2023/10/14 10:54:42;;;;;;;9.18;1.65;;;14.50;99.90;;;;;;5015276;28;20190;-86
2023/10/14 10:57:11;;;;;;;11.30;2.53;;;14.50;99.90;;;;;;5021897;28;20657;-87
2023/10/14 10:59:37;;;;;;;10.00;1.60;;;14.60;99.90;;;;;;5026289;28;20188;-86
2023/10/14 11:02:13;;;;;;;8.95;1.67;;;14.70;99.90;;;;;;5026710;28;20190;-88
2023/10/14 11:04:43;;;;;;;6.93;1.50;;;14.80;99.90;;;;;;5026197;28;20637;-85
2023/10/14 11:07:11;;;;;;;10.00;2.00;;;14.90;99.90;;;;;;5020524;28;21059;-86
2023/10/14 11:09:41;;;;;;;8.90;1.80;;;14.90;99.90;;;;;;5020237;28;20194;-87
2023/10/14 11:12:12;;;;;;;8.50;1.63;;;14.90;99.90;;;;;;5018230;28;20217;-89
2023/10/14 11:14:38;;;;;;;9.85;1.80;;;14.90;99.90;;;;;;5017086;28;20190;-89
2023/10/14 11:17:05;;;;;;;9.50;2.33;;;15.10;99.90;;;;;;5016926;28;20215;-88
2023/10/14 11:19:37;;;;;;;9.13;1.70;;;15.30;99.90;;;;;;5021393;28;20626;-92
2023/10/14 11:22:04;;;;;;;8.23;1.85;;;15.40;99.90;;;;;;5016310;28;20233;-90
2023/10/14 11:24:31;;;;;;;7.25;1.88;;;15.40;99.90;;;;;;5030448;28;20193;-92
2023/10/14 11:26:58;;;;;;;8.40;1.83;;;15.40;99.90;;;;;;5018302;28;20645;-91
2023/10/14 11:29:25;;;;;;;7.65;1.73;;;15.30;99.90;;;;;;5025526;28;20194;-92
2023/10/14 11:31:58;;;;;;;8.85;1.60;;;15.20;99.90;;;;;;5014132;28;20183;-91
2023/10/14 11:34:24;;;;;;;12.30;2.03;;;15.30;99.90;;;;;;5017784;28;20186;-92
2023/10/14 11:36:50;;;;;;;8.00;2.05;;;15.40;99.90;;;;;;5023417;28;20628;-91
2023/10/14 11:39:18;;;;;;;5.95;1.77;;;15.50;99.90;;;;;;5021240;28;20195;-90
2023/10/14 11:41:51;;;;;;;10.57;1.83;;;15.50;99.90;;;;;;5013855;28;20250;-91
2023/10/14 11:44:18;;;;;;;10.70;2.13;;;15.40;99.90;;;;;;5020175;28;20187;-90
2023/10/14 11:46:45;;;;;;;11.18;1.90;;;15.40;99.90;;;;;;5025037;28;20186;-95
2023/10/14 11:49:11;;;;;;;9.68;1.98;;;15.40;99.90;;;;;;5024563;28;20183;-90
2023/10/14 11:51:47;;;;;;;10.57;1.90;;;15.50;99.90;;;;;;5023512;28;20187;-92
2023/10/14 11:54:15;;;;;;;11.27;1.90;;;15.30;99.90;;;;;;5023821;28;20270;-91
2023/10/14 11:56:42;;;;;;;8.27;1.73;;;15.10;99.90;;;;;;5023406;28;20214;-90
2023/10/14 11:59:09;;;;;;;7.80;1.85;;;14.90;99.90;;;;;;5022052;28;20221;-91
2023/10/14 12:01:44;;;;;;;9.27;2.25;;;14.70;99.90;;;;;;5013664;28;20210;-91
2023/10/14 12:04:11;;;;;;;7.03;1.83;;;14.60;99.90;;;;;;5014284;28;20171;-91
2023/10/14 12:06:37;;;;;;;7.60;1.90;;;14.60;99.90;;;;;;5014328;28;20190;-91
2023/10/14 12:09:06;;;;;;;7.47;1.42;;;14.70;99.90;;;;;;5014217;28;20550;-92
2023/10/14 12:11:41;;;;;;;9.57;1.77;;;14.70;99.90;;;;;;5014299;28;20175;-88
2023/10/14 12:14:11;;;;;;;6.43;1.27;;;14.80;99.90;;;;;;5014394;28;20257;-91
2023/10/14 12:16:38;;;;;;;7.93;1.85;;;14.90;99.90;;;;;;5014183;28;20214;-90
2023/10/14 12:19:04;;;;;;;5.28;1.65;;;15.20;99.90;;;;;;5015319;28;20179;-88
2023/10/14 12:21:41;;;;;;;8.85;1.50;;;15.50;99.90;;;;;;5014184;28;20254;-91
2023/10/14 12:24:09;;;;;;;8.65;1.85;;;15.70;99.90;;;;;;5013839;28;20258;-89
2023/10/14 12:26:42;;;;;;;10.02;1.98;;;15.70;99.90;;;;;;5014333;28;20186;-90
2023/10/14 12:29:09;;;;;;;7.82;1.80;;;15.80;99.90;;;;;;5014110;28;20171;-90
2023/10/14 12:31:44;;;;;;;12.25;1.60;;;16.00;99.90;;;;;;5014178;28;20630;-91
2023/10/14 12:34:11;;;;;;;6.72;1.35;;;16.10;99.90;;;;;;5018265;28;20254;-92
2023/10/14 12:36:43;;;;;;;5.65;1.67;;;16.10;99.90;;;;;;5033463;28;20234;-90
2023/10/14 12:39:19;;;;;;;6.50;1.75;;;16.00;99.90;;;;;;5033863;28;20179;-90
2023/10/14 12:42:02;;;;;;;9.05;1.50;;;16.10;99.90;;;;;;5033709;28;20217;-90
2023/10/14 12:44:28;;;;;;;7.70;1.65;;;16.20;99.90;;;;;;5028323;28;20640;-92
2023/10/14 12:46:53;;;;;;;9.27;1.95;;;16.20;99.90;;;;;;5022749;28;20255;-90
2023/10/14 12:49:19;;;;;;;6.85;1.95;;;16.20;99.90;;;;;;5021707;28;20583;-91
2023/10/14 12:51:56;;;;;;;7.25;1.80;;;16.30;99.90;;;;;;5019128;28;20183;-89
2023/10/14 12:54:22;;;;;;;10.23;2.40;;;16.30;99.90;;;;;;5028138;28;20182;-91
2023/10/14 12:56:50;;;;;;;7.97;1.65;;;16.50;99.90;;;;;;5022180;28;20207;-90
2023/10/14 12:59:16;;;;;;;7.95;1.27;;;16.50;99.90;;;;;;5019357;28;20635;-91
2023/10/14 13:01:58;;;;;;;14.65;1.95;;;16.50;99.90;;;;;;5016347;28;20229;-91
2023/10/14 13:04:27;;;;;;;7.30;1.73;;;16.50;99.90;;;;;;5019651;28;20900;-91
2023/10/14 13:06:53;;;;;;;9.60;1.90;;;16.50;99.90;;;;;;5024332;28;20187;-91
2023/10/14 13:09:19;;;;;;;9.13;1.48;;;16.60;99.90;;;;;;5021685;28;20187;-93
2023/10/14 13:12:08;;;;;;;8.45;1.65;;;16.70;99.90;;;;;;5026469;28;20351;-92
2023/10/14 13:14:37;;;;;;;8.15;1.67;;;16.80;99.90;;;;;;5027832;28;20497;-91
2023/10/14 13:17:03;;;;;;;6.53;1.90;;;16.70;99.90;;;;;;5031073;28;20639;-92
2023/10/14 13:19:38;;;;;;;5.95;1.40;;;16.60;99.90;;;;;;5029192;28;20183;-89
2023/10/14 13:22:09;;;;;;;9.93;1.50;;;16.60;99.90;;;;;;5020126;28;20337;-90
2023/10/14 13:24:40;;;;;;;9.00;1.63;;;16.40;99.90;;;;;;5016803;28;20175;-90
2023/10/14 13:27:06;;;;;;;7.65;1.92;;;16.40;99.90;;;;;;5026612;28;20630;-91
2023/10/14 13:29:32;;;;;;;9.32;1.73;;;16.50;99.90;;;;;;5017875;28;20190;-90
2023/10/14 13:31:59;;;;;;;7.88;1.67;;;16.50;99.90;;;;;;5017190;28;20175;-93
2023/10/14 13:34:25;;;;;;;6.80;1.63;;;16.40;99.90;;;;;;5017574;28;20214;-93
2023/10/14 13:36:50;;;;;;;6.47;1.30;;;16.40;99.90;;;;;;5030607;28;20329;-90
2023/10/14 13:39:16;;;;;;;8.65;1.73;;;16.30;99.00;;;;;;5037721;28;20179;-92